createdAt,value
2022-09-18T00:01:37.762Z,13.10
2022-09-18T00:04:07.953Z,13.10
2022-09-18T00:06:40.303Z,13.10
2022-09-18T00:09:12.814Z,13.10
2022-09-18T00:11:42.623Z,13.10
2022-09-18T00:14:12.617Z,13.10
2022-09-18T00:16:41.784Z,13.10
2022-09-18T00:19:10.680Z,13.10
2022-09-18T00:21:41.732Z,13.00
2022-09-18T00:24:11.391Z,13.00
2022-09-18T00:26:40.305Z,13.00
2022-09-18T00:29:08.644Z,13.00
2022-09-18T00:31:37.908Z,13.00
2022-09-18T00:34:08.629Z,13.00
2022-09-18T00:36:38.483Z,13.00
2022-09-18T00:39:08.198Z,13.00
2022-09-18T00:41:39.945Z,12.90
2022-09-18T00:44:35.104Z,12.90
2022-09-18T00:47:16.060Z,12.70
2022-09-18T00:49:47.712Z,12.70
2022-09-18T00:52:18.436Z,12.70
2022-09-18T00:54:49.470Z,12.70
2022-09-18T00:57:23.533Z,12.70
2022-09-18T00:59:53.678Z,12.60
2022-09-18T01:02:22.560Z,12.60
2022-09-18T01:04:51.857Z,12.60
2022-09-18T01:07:32.969Z,12.60
2022-09-18T01:10:11.248Z,12.60
2022-09-18T01:12:51.223Z,12.50
2022-09-18T01:15:29.382Z,12.50
2022-09-18T01:18:06.996Z,12.50
2022-09-18T01:20:55.262Z,12.40
2022-09-18T01:24:01.934Z,12.30
2022-09-18T01:26:47.600Z,12.30
2022-09-18T01:29:24.847Z,12.50
2022-09-18T01:31:58.651Z,12.50
2022-09-18T01:34:34.148Z,12.50
2022-09-18T01:37:05.852Z,12.50
2022-09-18T01:39:39.675Z,12.60
2022-09-18T01:42:12.685Z,12.40
2022-09-18T01:44:46.096Z,12.40
2022-09-18T01:47:18.198Z,12.40
2022-09-18T01:49:48.860Z,12.40
2022-09-18T01:52:20.902Z,12.40
2022-09-18T01:54:52.136Z,12.40
2022-09-18T01:57:25.104Z,12.10
2022-09-18T02:00:00.183Z,12.30
2022-09-18T02:02:33.429Z,12.10
2022-09-18T02:05:07.056Z,12.10
2022-09-18T02:07:42.644Z,12.00
2022-09-18T02:10:11.007Z,12.10
2022-09-18T02:12:44.102Z,12.20
2022-09-18T02:15:15.967Z,12.40
2022-09-18T02:17:57.612Z,12.20
2022-09-18T02:20:39.156Z,12.30
2022-09-18T02:23:10.275Z,12.40
2022-09-18T02:25:44.128Z,12.20
2022-09-18T02:28:16.250Z,12.00
2022-09-18T02:30:46.689Z,12.10
2022-09-18T02:33:26.664Z,12.10
2022-09-18T02:36:06.143Z,12.10
2022-09-18T02:38:45.491Z,12.10
2022-09-18T02:41:20.821Z,12.20
2022-09-18T02:43:55.708Z,12.20
2022-09-18T02:46:36.761Z,12.10
2022-09-18T02:49:13.159Z,12.20
2022-09-18T02:51:51.760Z,12.20
2022-09-18T02:54:26.607Z,12.10
2022-09-18T02:57:04.252Z,12.20
2022-09-18T02:59:35.812Z,12.10
2022-09-18T03:02:07.651Z,12.10
2022-09-18T03:04:40.312Z,11.90
2022-09-18T03:07:19.038Z,12.10
2022-09-18T03:09:49.396Z,12.10
2022-09-18T03:12:18.277Z,12.10
2022-09-18T03:14:49.476Z,12.10
2022-09-18T03:17:19.995Z,12.00
2022-09-18T03:19:48.550Z,12.10
2022-09-18T03:22:16.748Z,12.00
2022-09-18T03:24:44.908Z,11.90
2022-09-18T03:27:15.420Z,11.90
2022-09-18T03:29:43.860Z,12.00
2022-09-18T03:32:12.920Z,11.90
2022-09-18T03:34:47.088Z,11.90
2022-09-18T03:37:16.511Z,12.00
2022-09-18T03:39:46.396Z,12.00
2022-09-18T03:42:16.107Z,12.00
2022-09-18T03:44:44.388Z,12.00
2022-09-18T03:47:20.626Z,12.10
2022-09-18T03:49:50.830Z,12.20
2022-09-18T03:52:20.376Z,12.10
2022-09-18T03:54:56.971Z,12.10
2022-09-18T03:58:00.893Z,12.20
2022-09-18T04:00:43.895Z,12.10
2022-09-18T04:03:20.283Z,12.00
2022-09-18T04:06:09.386Z,11.90
2022-09-18T04:08:57.484Z,11.90
2022-09-18T04:11:34.963Z,11.90
2022-09-18T04:14:03.349Z,11.90
2022-09-18T04:16:32.051Z,12.00
2022-09-18T04:19:00.606Z,12.00
2022-09-18T04:21:30.370Z,12.10
2022-09-18T04:24:00.066Z,12.10
2022-09-18T04:26:28.692Z,12.10
2022-09-18T04:28:59.777Z,12.10
2022-09-18T04:31:28.069Z,12.10
2022-09-18T04:33:58.087Z,12.20
2022-09-18T04:36:26.216Z,12.10
2022-09-18T04:38:56.156Z,12.10
2022-09-18T04:41:24.410Z,12.20
2022-09-18T04:43:52.666Z,12.30
2022-09-18T04:46:21.341Z,12.20
2022-09-18T04:48:52.374Z,12.30
2022-09-18T04:51:24.713Z,12.10
2022-09-18T04:53:52.994Z,12.20
2022-09-18T04:56:22.735Z,12.10
2022-09-18T04:58:53.492Z,12.10
2022-09-18T05:01:21.930Z,11.90
2022-09-18T05:03:50.689Z,12.00
2022-09-18T05:06:42.115Z,12.10
2022-09-18T05:09:10.385Z,12.00
2022-09-18T05:11:39.946Z,11.90
2022-09-18T05:14:08.094Z,11.70
2022-09-18T05:16:36.898Z,11.90
2022-09-18T05:19:37.121Z,12.00
2022-09-18T05:22:22.808Z,12.00
2022-09-18T05:24:53.502Z,11.90
2022-09-18T05:27:26.805Z,12.00
2022-09-18T05:29:56.754Z,11.90
2022-09-18T05:32:34.078Z,11.90
2022-09-18T05:35:02.509Z,11.90
2022-09-18T05:37:30.831Z,12.00
2022-09-18T05:39:59.129Z,12.00
2022-09-18T05:42:29.148Z,11.80
2022-09-18T05:45:01.716Z,11.90
2022-09-18T05:47:32.500Z,11.90
2022-09-18T05:50:01.781Z,11.90
2022-09-18T05:52:29.967Z,11.80
2022-09-18T05:54:58.483Z,11.70
2022-09-18T05:57:28.205Z,11.70
2022-09-18T05:59:56.508Z,11.60
2022-09-18T06:02:24.673Z,11.60
2022-09-18T06:05:10.577Z,11.60
2022-09-18T06:07:39.671Z,11.60
2022-09-18T06:10:08.792Z,11.80
2022-09-18T06:12:38.587Z,11.90
2022-09-18T06:15:07.805Z,11.80
2022-09-18T06:17:36.781Z,11.70
2022-09-18T06:20:07.798Z,11.70
2022-09-18T06:22:36.556Z,11.70
2022-09-18T06:25:05.187Z,11.80
2022-09-18T06:27:35.604Z,11.90
2022-09-18T06:30:06.211Z,11.90
2022-09-18T06:32:36.488Z,11.80
2022-09-18T06:35:04.999Z,11.70
2022-09-18T06:37:33.391Z,11.80
2022-09-18T06:40:12.431Z,11.70
2022-09-18T06:43:10.771Z,11.70
2022-09-18T06:46:04.643Z,11.60
2022-09-18T06:48:40.035Z,11.60
2022-09-18T06:51:10.089Z,11.70
2022-09-18T06:53:57.339Z,11.70
2022-09-18T06:56:26.099Z,11.60
2022-09-18T06:58:55.933Z,11.70
2022-09-18T07:01:25.713Z,11.70
2022-09-18T07:04:06.170Z,11.80
2022-09-18T07:06:41.447Z,11.90
2022-09-18T07:09:09.787Z,11.80
2022-09-18T07:11:58.777Z,11.90
2022-09-18T07:14:44.330Z,12.00
2022-09-18T07:17:19.160Z,11.90
2022-09-18T07:19:50.648Z,12.00
2022-09-18T07:22:24.331Z,11.90
2022-09-18T07:24:54.041Z,11.90
2022-09-18T07:27:23.743Z,11.80
2022-09-18T07:29:52.903Z,11.90
2022-09-18T07:32:22.892Z,11.80
2022-09-18T07:34:51.379Z,11.90
2022-09-18T07:37:27.774Z,11.80
2022-09-18T07:40:16.716Z,11.80
2022-09-18T07:43:07.495Z,11.90
2022-09-18T07:45:37.608Z,12.00
2022-09-18T07:48:09.776Z,11.90
2022-09-18T07:50:46.646Z,12.00
2022-09-18T07:53:17.641Z,12.00
2022-09-18T07:55:48.926Z,11.90
2022-09-18T07:58:17.143Z,11.90
2022-09-18T08:01:07.214Z,12.00
2022-09-18T08:03:46.243Z,12.00
2022-09-18T08:06:14.736Z,12.00
2022-09-18T08:08:55.207Z,12.00
2022-09-18T08:11:42.173Z,12.00
2022-09-18T08:14:29.831Z,12.10
2022-09-18T08:17:30.448Z,12.10
2022-09-18T08:20:23.553Z,12.10
2022-09-18T08:22:55.504Z,12.10
2022-09-18T08:25:28.499Z,12.10
2022-09-18T08:28:01.665Z,12.10
2022-09-18T08:30:36.748Z,12.00
2022-09-18T08:33:10.124Z,12.00
2022-09-18T08:35:40.147Z,12.00
2022-09-18T08:38:28.485Z,12.00
2022-09-18T08:41:38.525Z,12.00
2022-09-18T08:44:12.334Z,12.00
2022-09-18T08:46:45.216Z,12.00
2022-09-18T08:49:24.568Z,12.10
2022-09-18T08:52:04.375Z,12.10
2022-09-18T08:54:47.406Z,12.10
2022-09-18T08:57:38.721Z,12.10
2022-09-18T09:00:20.568Z,12.20
2022-09-18T09:03:14.324Z,12.20
2022-09-18T09:05:48.535Z,12.30
2022-09-18T09:08:38.748Z,12.30
2022-09-18T09:11:17.063Z,12.30
2022-09-18T09:14:14.225Z,12.40
2022-09-18T09:16:44.678Z,12.40
2022-09-18T09:19:31.411Z,12.40
2022-09-18T09:22:07.468Z,12.50
2022-09-18T09:24:48.331Z,12.60
2022-09-18T09:27:49.964Z,12.70
2022-09-18T09:30:38.023Z,12.70
2022-09-18T09:33:23.074Z,12.80
2022-09-18T09:36:19.029Z,12.80
2022-09-18T09:38:54.335Z,12.90
2022-09-18T09:41:32.483Z,13.00
2022-09-18T09:44:24.405Z,13.10
2022-09-18T09:47:01.448Z,13.10
2022-09-18T09:49:33.600Z,13.20
2022-09-18T09:52:10.531Z,13.20
2022-09-18T09:54:39.863Z,13.20
2022-09-18T09:57:24.224Z,13.40
2022-09-18T09:59:59.657Z,13.50
2022-09-18T10:03:08.560Z,13.50
2022-09-18T10:05:50.326Z,13.70
2022-09-18T10:08:28.546Z,13.90
2022-09-18T10:10:59.436Z,13.80
2022-09-18T10:13:35.063Z,13.80
2022-09-18T10:16:05.828Z,13.90
2022-09-18T10:18:39.355Z,13.90
2022-09-18T10:21:11.340Z,14.00
2022-09-18T10:23:42.205Z,13.90
2022-09-18T10:26:16.624Z,13.90
2022-09-18T10:28:46.239Z,14.00
2022-09-18T10:31:16.006Z,14.00
2022-09-18T10:33:53.248Z,13.90
2022-09-18T10:36:30.597Z,13.90
2022-09-18T10:39:17.118Z,14.00
2022-09-18T10:41:46.319Z,14.10
2022-09-18T10:44:26.716Z,14.30
2022-09-18T10:47:07.834Z,14.30
2022-09-18T10:49:40.805Z,14.30
2022-09-18T10:52:29.970Z,14.20
2022-09-18T10:55:15.317Z,14.20
2022-09-18T10:58:13.727Z,14.20
2022-09-18T11:00:52.958Z,14.10
2022-09-18T11:03:25.860Z,14.10
2022-09-18T11:05:58.711Z,14.10
2022-09-18T11:08:31.138Z,14.10
2022-09-18T11:11:04.292Z,14.20
2022-09-18T11:13:45.937Z,14.20
2022-09-18T11:16:26.189Z,14.30
2022-09-18T11:19:21.337Z,14.30
2022-09-18T11:21:51.380Z,14.40
2022-09-18T11:24:25.635Z,14.50
2022-09-18T11:27:01.627Z,14.70
2022-09-18T11:29:33.040Z,14.90
2022-09-18T11:32:14.417Z,15.00
2022-09-18T11:34:50.272Z,14.90
2022-09-18T11:37:29.279Z,14.80
2022-09-18T11:40:02.226Z,14.80
2022-09-18T11:42:32.649Z,14.70
2022-09-18T11:45:16.936Z,14.70
2022-09-18T11:47:52.720Z,14.70
2022-09-18T11:50:23.493Z,14.70
2022-09-18T11:52:54.941Z,14.70
2022-09-18T11:55:33.822Z,14.70
2022-09-18T11:58:04.740Z,15.00
2022-09-18T12:00:37.616Z,15.10
2022-09-18T12:03:16.886Z,15.00
2022-09-18T12:05:53.151Z,15.10
2022-09-18T12:08:33.587Z,15.10
2022-09-18T12:11:18.523Z,15.20
2022-09-18T12:13:57.864Z,15.10
2022-09-18T12:16:34.133Z,15.20
2022-09-18T12:19:09.082Z,15.30
2022-09-18T12:21:46.583Z,15.20
2022-09-18T12:24:16.743Z,15.20
2022-09-18T12:26:59.095Z,15.10
2022-09-18T12:29:38.103Z,15.00
2022-09-18T12:32:22.551Z,15.00
2022-09-18T12:35:00.129Z,15.20
2022-09-18T12:37:43.060Z,15.30
2022-09-18T12:40:45.711Z,15.50
2022-09-18T12:43:30.056Z,15.50
2022-09-18T12:46:21.922Z,15.40
2022-09-18T12:49:04.437Z,15.50
2022-09-18T12:51:42.368Z,15.60
2022-09-18T12:54:33.351Z,15.70
2022-09-18T12:57:15.756Z,15.60
2022-09-18T12:59:54.184Z,15.50
2022-09-18T13:02:39.193Z,15.50
2022-09-18T13:05:14.952Z,15.50
2022-09-18T13:07:49.963Z,15.50
2022-09-18T13:10:22.172Z,15.60
2022-09-18T13:12:57.895Z,15.50
2022-09-18T13:15:29.046Z,15.50
2022-09-18T13:18:09.968Z,15.60
2022-09-18T13:20:43.434Z,15.60
2022-09-18T13:23:19.515Z,15.70
2022-09-18T13:25:51.786Z,15.80
2022-09-18T13:28:23.008Z,15.80
2022-09-18T13:31:18.570Z,15.70
2022-09-18T13:33:53.083Z,15.60
2022-09-18T13:36:28.337Z,15.70
2022-09-18T13:39:01.541Z,15.70
2022-09-18T13:41:41.323Z,15.70
2022-09-18T13:44:19.690Z,15.70
2022-09-18T13:46:49.756Z,15.60
2022-09-18T13:49:26.247Z,15.60
2022-09-18T13:51:54.654Z,15.60
2022-09-18T13:54:28.008Z,15.60
2022-09-18T13:57:30.540Z,15.60
2022-09-18T14:00:01.740Z,15.60
2022-09-18T14:02:41.283Z,15.60
2022-09-18T14:05:32.318Z,15.60
2022-09-18T14:08:13.790Z,15.60
2022-09-18T14:11:19.565Z,15.50
2022-09-18T14:13:54.227Z,15.50
2022-09-18T14:16:43.697Z,15.50
2022-09-18T14:19:31.065Z,15.60
2022-09-18T14:22:00.677Z,15.60
2022-09-18T14:24:57.292Z,15.60
2022-09-18T14:27:39.956Z,15.60
2022-09-18T14:30:18.312Z,15.60
2022-09-18T14:33:04.911Z,15.70
2022-09-18T14:35:38.626Z,15.70
2022-09-18T14:38:18.587Z,15.80
2022-09-18T14:40:54.367Z,15.80
2022-09-18T14:43:26.144Z,15.70
2022-09-18T14:45:55.269Z,15.80
2022-09-18T14:48:29.385Z,15.70
2022-09-18T14:51:03.312Z,15.80
2022-09-18T14:53:31.967Z,15.80
2022-09-18T14:56:04.933Z,15.80
2022-09-18T14:58:37.836Z,15.80
2022-09-18T15:01:09.245Z,15.70
2022-09-18T15:03:40.940Z,15.70
2022-09-18T15:06:16.686Z,15.70
2022-09-18T15:08:46.973Z,15.60
2022-09-18T15:11:17.355Z,15.60
2022-09-18T15:13:48.345Z,15.70
2022-09-18T15:16:21.224Z,15.80
2022-09-18T15:18:51.206Z,15.70
2022-09-18T15:21:29.847Z,15.80
2022-09-18T15:24:02.321Z,15.70
2022-09-18T15:26:33.207Z,15.70
2022-09-18T15:29:06.296Z,15.70
2022-09-18T15:31:35.358Z,15.70
2022-09-18T15:34:07.742Z,15.70
2022-09-18T15:36:38.010Z,15.60
2022-09-18T15:39:29.867Z,15.60
2022-09-18T15:42:20.365Z,15.60
2022-09-18T15:45:19.736Z,15.70
2022-09-18T15:47:48.177Z,15.60
2022-09-18T15:50:43.096Z,15.60
2022-09-18T15:53:18.830Z,15.60
2022-09-18T15:56:09.272Z,15.60
2022-09-18T15:58:47.364Z,15.50
2022-09-18T16:01:36.526Z,15.60
2022-09-18T16:04:16.996Z,15.50
2022-09-18T16:06:52.917Z,15.40
2022-09-18T16:09:33.646Z,15.40
2022-09-18T16:12:02.694Z,15.40
2022-09-18T16:14:42.365Z,15.50
2022-09-18T16:17:47.288Z,15.40
2022-09-18T16:20:26.781Z,15.50
2022-09-18T16:22:57.877Z,15.50
2022-09-18T16:25:28.614Z,15.50
2022-09-18T16:27:58.980Z,15.40
2022-09-18T16:30:29.894Z,15.40
2022-09-18T16:33:04.376Z,15.50
2022-09-18T16:35:34.352Z,15.40
2022-09-18T16:38:03.047Z,15.40
2022-09-18T16:40:32.182Z,15.30
2022-09-18T16:43:00.625Z,15.30
2022-09-18T16:45:29.068Z,15.20
2022-09-18T16:48:00.626Z,15.30
2022-09-18T16:50:29.238Z,15.30
2022-09-18T16:53:01.550Z,15.30
2022-09-18T16:55:32.303Z,15.30
2022-09-18T16:58:01.303Z,15.30
2022-09-18T17:00:29.512Z,15.30
2022-09-18T17:02:57.870Z,15.20
2022-09-18T17:05:26.332Z,15.20
2022-09-18T17:07:54.610Z,15.20
2022-09-18T17:10:24.809Z,15.20
2022-09-18T17:12:52.946Z,15.20
2022-09-18T17:15:21.361Z,15.20
2022-09-18T17:17:49.779Z,15.10
2022-09-18T17:20:18.808Z,15.10
2022-09-18T17:22:47.735Z,15.00
2022-09-18T17:25:16.867Z,15.10
2022-09-18T17:27:47.605Z,15.10
2022-09-18T17:30:16.133Z,15.00
2022-09-18T17:32:44.627Z,15.10
2022-09-18T17:35:13.493Z,15.00
2022-09-18T17:37:41.784Z,15.00
2022-09-18T17:40:10.594Z,15.00
2022-09-18T17:42:39.529Z,15.00
2022-09-18T17:45:10.311Z,15.00
2022-09-18T17:47:38.536Z,15.00
2022-09-18T17:50:07.771Z,15.00
2022-09-18T17:52:37.198Z,15.00
2022-09-18T17:55:06.072Z,14.90
2022-09-18T17:57:38.210Z,14.90
2022-09-18T18:00:10.121Z,14.90
2022-09-18T18:02:41.675Z,14.90
2022-09-18T18:05:10.239Z,15.00
2022-09-18T18:07:38.703Z,14.90
2022-09-18T18:10:07.959Z,15.00
2022-09-18T18:12:37.255Z,14.90
2022-09-18T18:15:06.670Z,14.80
2022-09-18T18:17:36.622Z,14.90
2022-09-18T18:20:06.736Z,14.90
2022-09-18T18:22:35.222Z,14.90
2022-09-18T18:25:03.687Z,15.00
2022-09-18T18:27:33.677Z,15.00
2022-09-18T18:30:02.364Z,15.00
2022-09-18T18:32:31.975Z,15.00
2022-09-18T18:35:02.084Z,15.00
2022-09-18T18:37:31.194Z,14.90
2022-09-18T18:39:59.600Z,14.90
2022-09-18T18:42:28.249Z,14.80
2022-09-18T18:44:56.559Z,14.90
2022-09-18T18:47:25.444Z,14.90
2022-09-18T18:49:54.197Z,14.90
2022-09-18T18:52:24.778Z,14.90
2022-09-18T18:54:53.309Z,14.90
2022-09-18T18:57:22.084Z,14.90
2022-09-18T18:59:51.022Z,14.90
2022-09-18T19:02:19.498Z,14.90
2022-09-18T19:04:47.812Z,14.90
2022-09-18T19:07:16.193Z,14.90
2022-09-18T19:09:46.010Z,15.00
2022-09-18T19:12:14.203Z,14.90
2022-09-18T19:14:42.625Z,14.90
2022-09-18T19:17:11.082Z,15.00
2022-09-18T19:19:39.363Z,15.10
2022-09-18T19:22:08.231Z,15.00
2022-09-18T19:24:36.606Z,15.00
2022-09-18T19:27:06.996Z,14.90
2022-09-18T19:29:39.044Z,14.90
2022-09-18T19:32:09.320Z,14.80
2022-09-18T19:34:38.172Z,14.70
2022-09-18T19:37:11.368Z,14.90
2022-09-18T19:39:39.936Z,14.80
2022-09-18T19:42:14.764Z,14.70
2022-09-18T19:44:47.670Z,14.70
2022-09-18T19:47:21.065Z,14.80
2022-09-18T19:49:51.021Z,14.60
2022-09-18T19:52:21.213Z,14.60
2022-09-18T19:54:51.248Z,14.80
2022-09-18T19:57:23.264Z,14.80
2022-09-18T19:59:54.331Z,14.90
2022-09-18T20:02:23.985Z,15.00
2022-09-18T20:04:52.460Z,14.90
2022-09-18T20:07:20.685Z,15.00
2022-09-18T20:09:49.129Z,14.90
2022-09-18T20:12:17.443Z,15.00
2022-09-18T20:14:47.959Z,14.90
2022-09-18T20:17:16.258Z,15.00
2022-09-18T20:19:45.670Z,14.80
2022-09-18T20:22:14.212Z,14.60
2022-09-18T20:24:42.784Z,14.50
2022-09-18T20:27:12.809Z,14.70
2022-09-18T20:29:41.479Z,14.90
2022-09-18T20:32:11.435Z,15.00
2022-09-18T20:34:39.984Z,14.90
2022-09-18T20:37:10.441Z,15.00
2022-09-18T20:39:38.938Z,15.00
2022-09-18T20:42:07.512Z,14.90
2022-09-18T20:44:36.242Z,14.90
2022-09-18T20:47:05.213Z,14.90
2022-09-18T20:49:36.938Z,14.90
2022-09-18T20:52:06.603Z,14.90
2022-09-18T20:54:34.795Z,14.80
2022-09-18T20:57:04.455Z,14.80
2022-09-18T20:59:32.667Z,14.80
2022-09-18T21:02:00.976Z,14.60
2022-09-18T21:04:29.228Z,14.60
2022-09-18T21:06:59.744Z,14.60
2022-09-18T21:09:31.019Z,14.60
2022-09-18T21:11:59.207Z,14.60
2022-09-18T21:14:27.573Z,14.40
2022-09-18T21:16:56.217Z,14.30
2022-09-18T21:19:26.296Z,14.20
2022-09-18T21:21:54.753Z,14.10
2022-09-18T21:24:25.225Z,14.10
2022-09-18T21:26:53.463Z,14.10
2022-09-18T21:29:23.467Z,14.10
2022-09-18T21:31:54.134Z,14.00
2022-09-18T21:34:24.689Z,14.00
2022-09-18T21:36:55.188Z,14.00
2022-09-18T21:39:26.012Z,13.90
2022-09-18T21:41:54.537Z,13.90
2022-09-18T21:44:27.133Z,13.90
2022-09-18T21:46:56.708Z,13.80
2022-09-18T21:49:25.163Z,13.80
2022-09-18T21:51:55.943Z,13.80
2022-09-18T21:54:25.946Z,13.80
2022-09-18T21:56:56.731Z,13.80
2022-09-18T21:59:26.860Z,13.80
2022-09-18T22:01:55.907Z,13.80
2022-09-18T22:04:26.277Z,13.90
2022-09-18T22:06:56.900Z,13.70
2022-09-18T22:09:28.776Z,13.70
2022-09-18T22:11:57.643Z,13.60
2022-09-18T22:14:29.069Z,13.70
2022-09-18T22:16:57.406Z,13.70
2022-09-18T22:19:26.046Z,13.90
2022-09-18T22:21:54.317Z,13.60
2022-09-18T22:24:25.020Z,13.90
2022-09-18T22:26:58.195Z,14.10
2022-09-18T22:29:29.069Z,13.80
2022-09-18T22:31:58.244Z,13.70
2022-09-18T22:34:28.364Z,13.60
2022-09-18T22:36:57.582Z,13.60
2022-09-18T22:39:26.739Z,13.80
2022-09-18T22:41:56.507Z,13.90
2022-09-18T22:44:25.541Z,14.00
2022-09-18T22:46:54.464Z,14.10
2022-09-18T22:49:24.159Z,14.20
2022-09-18T22:51:53.112Z,14.30
2022-09-18T22:54:24.799Z,14.30
2022-09-18T22:56:54.087Z,14.00
2022-09-18T22:59:26.045Z,13.80
2022-09-18T23:01:56.398Z,13.60
2022-09-18T23:04:28.001Z,13.70
2022-09-18T23:06:57.007Z,13.70
2022-09-18T23:09:25.412Z,13.30
2022-09-18T23:11:53.798Z,13.30
2022-09-18T23:14:26.158Z,13.10
2022-09-18T23:16:54.727Z,13.20
2022-09-18T23:19:25.967Z,13.10
2022-09-18T23:21:54.447Z,13.30
2022-09-18T23:24:23.403Z,13.10
2022-09-18T23:26:53.722Z,13.20
2022-09-18T23:29:25.123Z,13.30
2022-09-18T23:31:57.453Z,13.10
2022-09-18T23:34:28.799Z,13.00
2022-09-18T23:36:58.177Z,13.00
2022-09-18T23:39:28.736Z,12.90
2022-09-18T23:41:58.907Z,12.90
2022-09-18T23:44:30.988Z,12.90
2022-09-18T23:47:00.562Z,12.90
2022-09-18T23:49:29.251Z,12.90
2022-09-18T23:51:59.588Z,12.90
2022-09-18T23:54:29.606Z,12.90
2022-09-18T23:56:57.947Z,12.90
2022-09-18T23:59:28.521Z,12.90
